CST,Max TemperatureF,Mean TemperatureF,Min TemperatureF,Max Dew PointF,MeanDew PointF,Min DewpointF,Max Humidity, Mean Humidity, Min Humidity, Max Sea Level PressureIn, Mean Sea Level PressureIn, Min Sea Level PressureIn, Max VisibilityMiles, Mean VisibilityMiles, Min VisibilityMiles, Max Wind SpeedMPH, Mean Wind SpeedMPH, Max Gust SpeedMPH,PrecipitationIn, CloudCover, Events, WindDirDegrees
2012-12-1,61,52,43,50,46,42,100,81,62,30.15,30.08,29.99,10,8,5,18,11,26,0.00,3,,174
2012-12-2,66,61,55,58,55,48,100,81,62,30.06,30.02,29.96,10,8,0,18,9,26,0.03,6,Fog-Rain,196
2012-12-3,70,64,57,59,58,56,100,83,66,30.05,29.99,29.91,10,8,1,25,13,38,0.00,5,,183
2012-12-4,61,50,39,55,47,35,100,81,61,30.28,30.10,29.95,10,9,4,18,10,23,0.04,5,Rain,318
2012-12-5,48,40,32,36,32,29,96,76,56,30.41,30.31,30.19,10,10,10,14,7,18,0.00,0,,52
2012-12-6,48,40,32,43,36,30,92,79,66,30.19,30.06,29.96,10,10,6,15,8,20,0.01,3,Rain,160
2012-12-7,50,47,43,50,47,43,100,97,93,29.95,29.88,29.81,7,2,0,9,4,14,0.21,8,Fog-Rain,95
2012-12-8,47,44,41,46,43,39,100,95,89,30.03,29.94,29.84,10,6,0,15,8,18,0.32,8,Fog-Rain,348
2012-12-9,51,45,39,52,45,36,100,93,85,30.00,29.83,29.74,10,4,0,21,9,25,1.05,8,Fog-Rain,140
2012-12-10,39,33,27,37,27,23,100,89,78,30.03,29.90,29.80,10,10,8,21,15,25,0.00,8,,294
2012-12-11,36,30,23,24,22,20,88,72,56,30.24,30.13,30.04,10,10,10,17,7,23,0.00,0,,209
2012-12-12,44,35,26,29,25,21,82,66,49,30.37,30.32,30.24,10,10,9,14,8,16,0.00,0,,174
2012-12-13,48,39,30,29,26,24,78,60,42,30.36,30.30,30.21,10,10,10,17,10,22,0.00,0,,173
2012-12-14,50,42,34,36,30,26,75,64,52,30.25,30.17,30.05,10,10,10,13,9,16,0.00,1,,175
2012-12-15,54,49,43,51,45,32,96,78,60,30.01,29.77,29.66,10,9,2,26,13,41,0.32,7,Rain,172
2012-12-16,51,46,41,49,44,37,100,93,86,29.75,29.71,29.67,10,6,0,14,6,16,0.00,7,Fog,255
2012-12-17,41,38,35,39,37,35,100,96,92,29.77,29.70,29.62,7,4,2,14,7,17,0.21,8,Rain,349
2012-12-18,48,41,33,38,34,30,100,83,66,29.91,29.78,29.65,10,7,3,24,12,32,0.00,4,,220
2012-12-19,49,41,33,43,35,32,96,87,77,30.06,29.93,29.67,10,7,6,22,10,31,0.07,6,Rain,87
2012-12-20,55,41,26,52,37,22,96,83,70,29.75,29.39,29.21,10,5,1,44,23,55,1.26,8,Rain-Snow-Thunderstorm,225
2012-12-21,31,26,20,21,18,15,88,76,63,30.27,30.06,29.78,10,10,9,38,23,46,T,2,,297
2012-12-22,36,26,15,24,19,14,92,74,56,30.30,30.16,29.94,10,10,10,15,8,20,0.00,0,,187
2012-12-23,40,34,30,32,29,26,92,78,64,29.97,29.93,29.89,10,10,8,12,6,,0.00,0,,36
2012-12-24,34,30,25,30,27,22,92,84,75,30.12,29.90,29.78,8,5,3,21,12,26,0.00,7,,326
2012-12-25,34,30,25,27,25,21,92,81,69,30.25,30.15,30.00,10,9,5,29,14,38,0.00,7,,26
2012-12-26,32,30,28,29,27,24,92,85,78,30.10,29.91,29.82,10,5,0,31,22,39,0.00,8,Fog-Snow,360
2012-12-27,30,29,28,25,23,21,85,79,72,30.21,30.16,30.12,10,10,10,16,6,20,0.00,8,,278
2012-12-28,33,31,29,30,28,24,100,89,78,30.12,29.95,29.86,10,5,1,14,5,16,0.13,8,Snow,120
2012-12-29,31,22,13,31,23,13,100,87,74,30.33,30.05,29.84,10,5,1,24,13,30,0.02,7,Snow,306
2012-12-30,30,23,15,22,18,13,92,81,69,30.45,30.36,30.25,10,8,4,15,9,22,0.00,0,,192
2012-12-31,35,32,28,31,28,22,92,79,66,30.22,30.13,30.07,10,5,0,16,8,21,0.05,7,Fog-Snow,222